Sovereign Star — WDC7330 — position and weather

sailwx.info

Track history (hours):
 
Tides and Currents Weather Stations Pressure Air Temp Water Temp Dewpoint Dewpoint Depression Visibility Wind Speed Wind Dir Waves Ship Positions

Sovereign Star

Owner: SOVEREIGN STAR FISHING INC, NEW BEDFORD, MA. More information available from US FCC via Universal Licensing System and Coast Guard Vessel Documentation Center.

Last reported at 2017-Aug-15 03:22 UTC. Time now 2017-Aug-23 21:10 UTC.
Position N 40°55' W 071°19'.
Warning: this ship's position is 8 days out of date.

Length 19 m.

Type: Ship. MMSI: 367069720.

Date/timePositionNaut miles runAvg speedWind from/ knotsBaromVisibWave heightAir tempDewpointWater temp
2017-Aug-15 03:22N 40°55' W 071°19'1 1.0
2017-Aug-15 02:38N 40°55' W 071°20'2 3.5
2017-Aug-15 01:58N 40°57' W 071°19'2 4.5
2017-Aug-15 01:27N 40°54' W 071°18'  
2017-Aug-10 10:17N 39°08' W 073°09'1 4.6
2017-Aug-10 09:59N 39°07' W 073°09'1 0.2
2017-Aug-10 03:05N 39°08' W 073°10'0 4.6
2017-Aug-10 03:00N 39°07' W 073°10'3 3.3
2017-Aug-10 02:07N 39°10' W 073°08'1 4.7
2017-Aug-10 01:59N 39°09' W 073°09'  
2017-Aug-07 12:49N 39°08' W 073°09'2 3.6
2017-Aug-07 12:13N 39°10' W 073°09'0 0.2
2017-Aug-07 10:52N 39°09' W 073°09'2 5.0
2017-Aug-07 10:30N 39°08' W 073°10'1 1.6
2017-Aug-07 09:36N 39°09' W 073°09'1 5.1
2017-Aug-07 09:28N 39°08' W 073°10'  
Track history (hours):
 
Tides and Currents Weather Stations Pressure Air Temp Water Temp Dewpoint Dewpoint Depression Visibility Wind Speed Wind Dir Waves Ship Positions

Sovereign Star

Owner: SOVEREIGN STAR FISHING INC, NEW BEDFORD, MA. More information available from US FCC via Universal Licensing System and Coast Guard Vessel Documentation Center.

Last reported at 2017-Aug-15 03:22 UTC. Time now 2017-Aug-23 21:10 UTC.
Position N 40°55' W 071°19'.
Warning: this ship's position is 8 days out of date.

Length 19 m.

Type: Ship. MMSI: 367069720.

Date/timePositionNaut miles runAvg speedWind from/ knotsBaromVisibWave heightAir tempDewpointWater temp
2017-Aug-15 03:22N 40°55' W 071°19'1 1.0
2017-Aug-15 02:38N 40°55' W 071°20'2 3.5
2017-Aug-15 01:58N 40°57' W 071°19'2 4.5
2017-Aug-15 01:27N 40°54' W 071°18'  
2017-Aug-10 10:17N 39°08' W 073°09'1 4.6
2017-Aug-10 09:59N 39°07' W 073°09'1 0.2
2017-Aug-10 03:05N 39°08' W 073°10'0 4.6
2017-Aug-10 03:00N 39°07' W 073°10'3 3.3
2017-Aug-10 02:07N 39°10' W 073°08'1 4.7
2017-Aug-10 01:59N 39°09' W 073°09'  
2017-Aug-07 12:49N 39°08' W 073°09'2 3.6
2017-Aug-07 12:13N 39°10' W 073°09'0 0.2
2017-Aug-07 10:52N 39°09' W 073°09'2 5.0
2017-Aug-07 10:30N 39°08' W 073°10'1 1.6
2017-Aug-07 09:36N 39°09' W 073°09'1 5.1
2017-Aug-07 09:28N 39°08' W 073°10'  

Dump ship's entire track history